Startpagina
METAR-TAF:

METAR-TAF

Vliegvelden :

Ventspils, Letland

breedte: 57-21-28N, lengte: 021-32-39E, hoogte: 6 m

Actueel weer

Dit bericht is 18 minuten geleden gemaakt, om 13:20 UTC
Wind 10 kt uit het oostzuidoosten
Temperatuur 1°C
Vochtigheid 75%
Druk 1024 hPa
Zicht 10 km of meer
Verspreide wolken op 2200 ft

METAR: EVVA 221320Z AUTO 12010KT 9999 SCT022 01/M03 Q1024

Tijdstip: 15:38 (13:38 UTC)


TAF: ontbreekt

Waarnemingen en weersverwachtingen van meer dan 4000 vliegvelden (METAR en TAF).

De beschikbare stations zijn de gele en rode punten op de kaart.

Ga met uw muis naar het station om de naam te zien.

Klik dan om waarnemingen en weersverwachtingen te zien.

kaart wijzigen: klik op de groene knoppen met een zwart kruis om in te zoomen, op de groene knop met een streepje om uit te zoomen of op de groene pijlen voor aangrenzende kaarten.


METAR-TAF: